createdAt,value
2022-10-01T00:02:25.101Z,7.93
2022-10-01T00:12:33.221Z,6.18
2022-10-01T00:22:45.365Z,7.68
2022-10-01T00:32:57.351Z,6.25
2022-10-01T00:43:27.042Z,9.20
2022-10-01T00:53:37.208Z,9.65
2022-10-01T01:03:41.555Z,7.57
2022-10-01T01:14:06.003Z,8.95
2022-10-01T01:24:40.148Z,9.32
2022-10-01T01:34:52.101Z,9.80
2022-10-01T01:44:59.672Z,11.35
2022-10-01T01:55:09.340Z,9.13
2022-10-01T02:05:18.179Z,9.40
2022-10-01T02:15:38.884Z,10.52
2022-10-01T02:25:47.088Z,10.67
2022-10-01T02:35:57.091Z,7.28
2022-10-01T02:46:07.220Z,10.85
2022-10-01T02:56:48.596Z,16.70
2022-10-01T03:06:51.883Z,13.98
2022-10-01T03:16:57.544Z,15.68
2022-10-01T03:27:06.261Z,20.98
2022-10-01T03:37:15.248Z,16.83
2022-10-01T03:47:27.552Z,21.95
2022-10-01T03:57:37.347Z,18.33
2022-10-01T04:07:44.353Z,18.15
2022-10-01T04:17:49.219Z,15.32
2022-10-01T04:28:09.415Z,14.13
2022-10-01T04:38:30.269Z,14.40
2022-10-01T04:48:39.552Z,13.45
2022-10-01T04:58:56.302Z,22.27
2022-10-01T05:09:08.124Z,11.55
2022-10-01T05:19:18.209Z,9.23
2022-10-01T05:29:26.002Z,11.43
2022-10-01T05:50:24.853Z,13.45
2022-10-01T06:00:36.191Z,12.00
2022-10-01T06:10:49.682Z,9.52
2022-10-01T06:20:53.995Z,12.25
2022-10-01T06:31:11.911Z,14.23
2022-10-01T06:41:19.540Z,14.07
2022-10-01T06:52:58.656Z,16.35
2022-10-01T07:02:29.024Z,14.32
2022-10-01T07:12:39.678Z,11.45
2022-10-01T07:32:51.920Z,13.07
2022-10-01T07:42:55.692Z,14.05
2022-10-01T07:53:04.373Z,17.58
2022-10-01T08:03:41.837Z,10.43
2022-10-01T08:13:50.100Z,12.43
2022-10-01T08:24:00.625Z,13.80
2022-10-01T08:34:20.148Z,14.68
2022-10-01T08:44:31.757Z,14.82
2022-10-01T08:54:44.069Z,12.50
2022-10-01T09:04:52.561Z,11.35
2022-10-01T09:15:16.035Z,13.57
2022-10-01T09:25:28.938Z,15.57
2022-10-01T09:35:44.415Z,14.80
2022-10-01T09:45:59.089Z,12.00
2022-10-01T09:56:17.368Z,12.23
2022-10-01T10:06:34.030Z,17.35
2022-10-01T10:16:51.143Z,14.27
2022-10-01T10:27:04.496Z,12.32
2022-10-01T10:37:18.444Z,10.82
2022-10-01T10:47:25.068Z,9.52
2022-10-01T10:57:38.115Z,14.75
2022-10-01T11:07:46.593Z,10.68
2022-10-01T11:18:31.915Z,12.70
2022-10-01T11:28:48.477Z,13.57
2022-10-01T11:39:00.775Z,17.17
2022-10-01T11:49:38.291Z,12.40
2022-10-01T11:59:55.525Z,11.60
2022-10-01T12:10:16.794Z,10.52
2022-10-01T12:20:28.228Z,14.80
2022-10-01T12:30:38.373Z,9.00
2022-10-01T12:40:51.273Z,12.18
2022-10-01T12:51:13.623Z,10.57
2022-10-01T13:01:35.408Z,8.23
2022-10-01T13:12:03.788Z,7.47
2022-10-01T13:33:09.527Z,7.97
2022-10-01T13:43:33.911Z,7.78
2022-10-01T13:54:01.292Z,7.80
2022-10-01T14:04:22.200Z,7.57
2022-10-01T14:15:07.160Z,5.00
2022-10-01T14:25:27.044Z,5.82
2022-10-01T14:35:34.282Z,7.87
2022-10-01T14:45:53.005Z,7.43
2022-10-01T14:56:03.381Z,7.57
2022-10-01T15:06:16.984Z,7.65
2022-10-01T15:16:25.589Z,6.22
2022-10-01T15:26:35.401Z,6.32
2022-10-01T15:36:40.898Z,8.87
2022-10-01T15:46:46.632Z,7.55
2022-10-01T15:56:49.660Z,8.50
2022-10-01T16:06:58.661Z,8.25
2022-10-01T16:17:31.604Z,11.87
2022-10-01T16:38:26.516Z,25.30
2022-10-01T16:48:50.362Z,16.50
2022-10-01T16:58:54.420Z,13.48
2022-10-01T17:09:01.700Z,11.95
2022-10-01T17:19:08.107Z,14.60
2022-10-01T17:29:15.519Z,13.23
2022-10-01T17:40:31.813Z,9.05
2022-10-01T17:51:06.098Z,11.45
2022-10-01T18:01:29.684Z,7.40
2022-10-01T18:11:34.919Z,7.95
2022-10-01T18:21:37.986Z,7.82
2022-10-01T18:31:51.036Z,5.78
2022-10-01T18:42:00.126Z,5.97
2022-10-01T19:13:57.708Z,7.20
2022-10-01T19:24:21.801Z,10.32
2022-10-01T19:34:39.419Z,10.30
2022-10-01T19:44:57.051Z,7.80
2022-10-01T19:55:15.080Z,9.43
2022-10-01T20:05:36.465Z,9.00
2022-10-01T20:16:04.107Z,6.70
2022-10-01T20:26:24.102Z,7.32
2022-10-01T20:36:47.047Z,21.75
2022-10-01T20:47:00.102Z,12.40
2022-10-01T20:57:12.290Z,12.48
2022-10-01T21:07:37.124Z,9.57
2022-10-01T21:17:48.577Z,7.18
2022-10-01T21:28:22.890Z,8.40
2022-10-01T21:38:39.910Z,7.35
2022-10-01T21:48:52.583Z,7.75
2022-10-01T21:59:16.588Z,6.35
2022-10-01T22:09:28.843Z,8.15
2022-10-01T22:19:40.640Z,6.70
2022-10-01T22:29:56.314Z,7.63
2022-10-01T22:40:08.169Z,8.05
2022-10-01T22:50:50.488Z,9.20
2022-10-01T23:01:04.239Z,10.32
2022-10-01T23:11:32.932Z,9.35
2022-10-01T23:21:52.523Z,9.07
2022-10-01T23:32:06.824Z,10.32
2022-10-01T23:42:28.575Z,12.63
2022-10-01T23:52:45.582Z,10.00
